createdAt,value
2023-05-09T00:00:54.882Z,97061.31
2023-05-09T00:01:58.502Z,97051.13
2023-05-09T00:03:02.902Z,97056.50
2023-05-09T00:04:06.400Z,97057.53
2023-05-09T00:05:10.042Z,97058.59
2023-05-09T00:06:13.542Z,97053.53
2023-05-09T00:07:15.941Z,97058.59
2023-05-09T00:08:19.788Z,97051.63
2023-05-09T00:09:22.176Z,97049.47
2023-05-09T00:10:25.460Z,97052.69
2023-05-09T00:11:28.038Z,97053.47
2023-05-09T00:12:32.250Z,97048.38
2023-05-09T00:13:35.527Z,97048.38
2023-05-09T00:14:40.838Z,97044.63
2023-05-09T00:15:44.606Z,97042.22
2023-05-09T00:16:48.467Z,97040.88
2023-05-09T00:17:50.954Z,97040.34
2023-05-09T00:18:54.468Z,97043.03
2023-05-09T00:19:56.845Z,97046.78
2023-05-09T00:21:03.160Z,97042.50
2023-05-09T00:22:05.593Z,97041.97
2023-05-09T00:23:08.992Z,97046.78
2023-05-09T00:24:11.945Z,97046.78
2023-05-09T00:25:15.627Z,97045.47
2023-05-09T00:26:18.204Z,97037.66
2023-05-09T00:27:21.561Z,97042.50
2023-05-09T00:28:23.900Z,97039.81
2023-05-09T00:29:27.333Z,97038.19
2023-05-09T00:30:29.795Z,97041.94
2023-05-09T00:31:34.520Z,97037.66
2023-05-09T00:32:37.227Z,97034.69
2023-05-09T00:33:40.660Z,97034.66
2023-05-09T00:34:43.693Z,97033.31
2023-05-09T00:35:47.120Z,97033.84
2023-05-09T00:36:50.754Z,97034.91
2023-05-09T00:37:54.239Z,97039.47
2023-05-09T00:38:56.572Z,97032.22
2023-05-09T00:40:00.621Z,97042.44
2023-05-09T00:41:03.170Z,97031.16
2023-05-09T00:42:06.747Z,97042.94
2023-05-09T00:43:09.198Z,97041.31
2023-05-09T00:44:12.520Z,97032.22
2023-05-09T00:45:15.645Z,97044.28
2023-05-09T00:46:19.398Z,97041.09
2023-05-09T00:47:24.117Z,97032.75
2023-05-09T00:48:27.543Z,97030.88
2023-05-09T00:49:30.104Z,97028.19
2023-05-09T00:50:34.208Z,97029.00
2023-05-09T00:51:37.235Z,97032.75
2023-05-09T00:52:40.736Z,97025.78
2023-05-09T00:53:43.160Z,97030.06
2023-05-09T00:54:46.442Z,97029.53
2023-05-09T00:55:49.205Z,97032.50
2023-05-09T00:56:53.088Z,97024.97
2023-05-09T00:57:55.479Z,97023.13
2023-05-09T00:58:58.897Z,97019.63
2023-05-09T01:00:01.984Z,97018.81
2023-05-09T01:01:06.751Z,97023.34
2023-05-09T01:02:09.196Z,97022.00
2023-05-09T01:03:14.074Z,97034.34
2023-05-09T01:04:17.124Z,97022.50
2023-05-09T01:05:21.343Z,97020.38
2023-05-09T01:06:39.764Z,97018.47
2023-05-09T01:07:50.947Z,97028.16
2023-05-09T01:08:59.975Z,97025.47
2023-05-09T01:10:10.435Z,97013.94
2023-05-09T01:11:23.035Z,97020.09
2023-05-09T01:12:36.666Z,97018.22
2023-05-09T01:13:50.493Z,97013.94
2023-05-09T01:15:09.859Z,97006.94
2023-05-09T01:16:20.755Z,97010.44
2023-05-09T01:17:35.788Z,97013.94
2023-05-09T01:18:46.177Z,97023.03
2023-05-09T01:20:00.826Z,97018.19
2023-05-09T01:21:08.919Z,97014.94
2023-05-09T01:22:16.365Z,97011.41
2023-05-09T01:23:40.218Z,97019.97
2023-05-09T01:25:20.871Z,97013.81
2023-05-09T01:26:35.176Z,97010.81
2023-05-09T01:27:49.716Z,97014.84
2023-05-09T01:29:18.194Z,97013.81
2023-05-09T01:30:22.156Z,97024.53
2023-05-09T01:31:25.951Z,97022.38
2023-05-09T01:32:31.763Z,97022.66
2023-05-09T01:33:38.738Z,97011.72
2023-05-09T01:34:44.882Z,97015.22
2023-05-09T01:35:54.419Z,97017.09
2023-05-09T01:36:59.800Z,97021.84
2023-05-09T01:38:05.999Z,97022.09
2023-05-09T01:39:13.713Z,97023.94
2023-05-09T01:40:20.350Z,97023.94
2023-05-09T01:41:24.144Z,97021.78
2023-05-09T01:42:32.174Z,97017.19
2023-05-09T01:43:36.364Z,97026.56
2023-05-09T01:44:43.795Z,97020.69
2023-05-09T01:45:48.342Z,97021.19
2023-05-09T01:46:54.066Z,97016.66
2023-05-09T01:47:58.336Z,97020.09
2023-05-09T01:49:02.510Z,97017.19
2023-05-09T01:50:07.344Z,97007.28
2023-05-09T01:51:12.414Z,97009.66
2023-05-09T01:52:17.886Z,97015.59
2023-05-09T01:53:23.291Z,97012.66
2023-05-09T01:54:26.930Z,97015.31
2023-05-09T01:55:35.704Z,97004.03
2023-05-09T01:56:41.064Z,97007.78
2023-05-09T01:57:45.186Z,97012.06
2023-05-09T01:58:50.170Z,97025.75
2023-05-09T01:59:56.623Z,97016.66
2023-05-09T02:01:01.242Z,97014.75
2023-05-09T02:02:05.867Z,97006.47
2023-05-09T02:03:09.166Z,97015.31
2023-05-09T02:04:14.047Z,97007.81
2023-05-09T02:05:18.653Z,97004.88
2023-05-09T02:06:24.904Z,97008.91
2023-05-09T02:07:30.055Z,97014.47
2023-05-09T02:08:34.390Z,97009.06
2023-05-09T02:09:36.920Z,97016.28
2023-05-09T02:10:40.908Z,97013.56
2023-05-09T02:11:43.893Z,97018.63
2023-05-09T02:12:47.259Z,97015.13
2023-05-09T02:13:50.836Z,97022.63
2023-05-09T02:14:55.728Z,97020.47
2023-05-09T02:15:58.545Z,97029.09
2023-05-09T02:17:06.477Z,97017.56
2023-05-09T02:18:09.245Z,97011.97
2023-05-09T02:19:12.610Z,97016.81
2023-05-09T02:20:15.124Z,97016.28
2023-05-09T02:21:18.600Z,97021.66
2023-05-09T02:22:21.100Z,97025.38
2023-05-09T02:23:24.456Z,97021.59
2023-05-09T02:24:26.910Z,97016.50
2023-05-09T02:25:30.838Z,97021.06
2023-05-09T02:26:34.650Z,97017.84
2023-05-09T02:27:40.836Z,97019.44
2023-05-09T02:28:45.776Z,97024.78
2023-05-09T02:29:52.099Z,97026.94
2023-05-09T02:30:57.297Z,97020.47
2023-05-09T02:32:02.661Z,97023.94
2023-05-09T02:33:08.033Z,97019.88
2023-05-09T02:34:13.113Z,97021.72
2023-05-09T02:35:17.571Z,97021.97
2023-05-09T02:36:22.032Z,97021.97
2023-05-09T02:37:26.058Z,97018.22
2023-05-09T02:38:29.926Z,97016.59
2023-05-09T02:39:32.686Z,97010.19
2023-05-09T02:40:36.679Z,97012.38
2023-05-09T02:41:39.297Z,97015.59
2023-05-09T02:42:42.863Z,97010.25
2023-05-09T02:43:46.061Z,97017.19
2023-05-09T02:44:49.535Z,97014.53
2023-05-09T02:45:52.133Z,97014.53
2023-05-09T02:46:56.814Z,97017.78
2023-05-09T02:47:59.281Z,97016.97
2023-05-09T02:49:03.500Z,97010.78
2023-05-09T02:50:07.129Z,97014.00
2023-05-09T02:51:10.554Z,97011.59
2023-05-09T02:52:12.984Z,97018.59
2023-05-09T02:53:16.404Z,97019.38
2023-05-09T02:54:18.830Z,97024.72
2023-05-09T02:55:22.110Z,97020.19
2023-05-09T02:56:24.498Z,97014.00
2023-05-09T02:57:27.845Z,97017.50
2023-05-09T02:58:30.267Z,97021.00
2023-05-09T02:59:34.058Z,97011.31
2023-05-09T03:00:40.428Z,97025.53
2023-05-09T03:01:50.695Z,97018.59
2023-05-09T03:03:04.074Z,97013.22
2023-05-09T03:04:15.028Z,97017.19
2023-05-09T03:05:19.022Z,97028.44
2023-05-09T03:06:22.398Z,97021.47
2023-05-09T03:07:24.780Z,97017.19
2023-05-09T03:08:28.107Z,97017.19
2023-05-09T03:09:30.522Z,97022.53
2023-05-09T03:10:33.922Z,97020.91
2023-05-09T03:11:36.924Z,97018.22
2023-05-09T03:12:43.859Z,97020.09
2023-05-09T03:13:46.366Z,97024.66
2023-05-09T03:14:49.750Z,97023.06
2023-05-09T03:15:53.652Z,97017.69
2023-05-09T03:16:55.984Z,97016.88
2023-05-09T03:18:00.767Z,97011.78
2023-05-09T03:19:03.271Z,97017.13
2023-05-09T03:20:10.465Z,97010.19
2023-05-09T03:21:14.790Z,97015.53
2023-05-09T03:22:17.166Z,97013.66
2023-05-09T03:23:20.565Z,97012.84
2023-05-09T03:24:23.382Z,97011.78
2023-05-09T03:25:27.350Z,97012.59
2023-05-09T03:26:30.270Z,97016.06
2023-05-09T03:27:33.575Z,97015.25
2023-05-09T03:28:35.951Z,97016.06
2023-05-09T03:29:39.232Z,97012.59
2023-05-09T03:30:41.588Z,97021.44
2023-05-09T03:31:45.553Z,97016.88
2023-05-09T03:32:48.048Z,97015.03
2023-05-09T03:33:52.777Z,97016.59
2023-05-09T03:34:55.183Z,97018.00
2023-05-09T03:35:58.724Z,97017.19
2023-05-09T03:37:02.776Z,97016.66
2023-05-09T03:38:06.326Z,97017.47
2023-05-09T03:39:09.102Z,97019.06
2023-05-09T03:40:13.110Z,97012.41
2023-05-09T03:41:17.384Z,97013.22
2023-05-09T03:42:22.079Z,97016.16
2023-05-09T03:43:24.440Z,97010.78
2023-05-09T03:44:27.813Z,97015.09
2023-05-09T03:45:30.578Z,97006.53
2023-05-09T03:46:34.013Z,97008.13
2023-05-09T03:47:36.569Z,97010.88
2023-05-09T03:48:39.851Z,97003.34
2023-05-09T03:49:43.610Z,96998.28
2023-05-09T03:50:46.902Z,97007.69
2023-05-09T03:51:49.430Z,97001.25
2023-05-09T03:52:52.753Z,97005.28
2023-05-09T03:53:55.482Z,97004.25
2023-05-09T03:54:59.358Z,97006.91
2023-05-09T03:56:02.411Z,97000.22
2023-05-09T03:57:05.834Z,96998.59
2023-05-09T03:58:08.246Z,96998.28
2023-05-09T03:59:11.592Z,96998.00
2023-05-09T04:00:14.402Z,96999.34
2023-05-09T04:01:19.996Z,96999.03
2023-05-09T04:02:23.103Z,97002.22
2023-05-09T04:03:27.132Z,96998.44
2023-05-09T04:04:29.916Z,97006.19
2023-05-09T04:05:35.478Z,97005.34
2023-05-09T04:06:38.661Z,97003.16
2023-05-09T04:07:42.399Z,97004.47
2023-05-09T04:08:44.846Z,97005.50
2023-05-09T04:09:49.606Z,97005.19
2023-05-09T04:10:52.562Z,97002.47
2023-05-09T04:11:56.157Z,97008.31
2023-05-09T04:12:58.852Z,97006.41
2023-05-09T04:14:03.313Z,97007.16
2023-05-09T04:15:07.902Z,97007.66
2023-05-09T04:16:11.193Z,97007.63
2023-05-09T04:17:14.262Z,97003.00
2023-05-09T04:18:17.712Z,97007.00
2023-05-09T04:19:20.191Z,97003.19
2023-05-09T04:20:23.730Z,97002.09
2023-05-09T04:21:27.628Z,96997.78
2023-05-09T04:22:31.809Z,96998.88
2023-05-09T04:23:34.233Z,97000.97
2023-05-09T04:24:38.197Z,97011.66
2023-05-09T04:25:41.152Z,96999.09
2023-05-09T04:26:44.549Z,97002.84
2023-05-09T04:27:47.589Z,97004.22
2023-05-09T04:28:50.953Z,97010.69
2023-05-09T04:29:53.894Z,97005.34
2023-05-09T04:30:57.381Z,97011.78
2023-05-09T04:32:00.049Z,97005.91
2023-05-09T04:33:03.645Z,97005.97
2023-05-09T04:34:06.636Z,97008.16
2023-05-09T04:35:10.444Z,97005.50
2023-05-09T04:36:12.834Z,97012.47
2023-05-09T04:37:17.743Z,97010.91
2023-05-09T04:38:20.285Z,97009.59
2023-05-09T04:39:23.687Z,97006.09
2023-05-09T04:40:27.037Z,97010.44
2023-05-09T04:41:31.049Z,97001.66
2023-05-09T04:42:33.970Z,97008.97
2023-05-09T04:43:37.314Z,97008.44
2023-05-09T04:44:39.952Z,97004.75
2023-05-09T04:45:43.347Z,97005.84
2023-05-09T04:46:45.919Z,97015.53
2023-05-09T04:47:49.491Z,97013.16
2023-05-09T04:48:51.900Z,97011.00
2023-05-09T04:49:55.277Z,97020.91
2023-05-09T04:50:57.734Z,97020.91
2023-05-09T04:52:01.185Z,97027.91
2023-05-09T04:53:05.044Z,97027.38
2023-05-09T04:54:09.246Z,97025.00
2023-05-09T04:55:11.687Z,97027.47
2023-05-09T04:56:15.096Z,97027.22
2023-05-09T04:57:18.784Z,97019.22
2023-05-09T04:58:22.550Z,97028.66
2023-05-09T04:59:25.554Z,97027.66
2023-05-09T05:00:28.955Z,97037.34
2023-05-09T05:01:31.413Z,97029.69
2023-05-09T05:02:34.792Z,97031.34
2023-05-09T05:03:37.176Z,97025.75
2023-05-09T05:04:41.168Z,97026.34
2023-05-09T05:05:44.013Z,97024.78
2023-05-09T05:06:47.304Z,97032.31
2023-05-09T05:07:49.675Z,97026.47
2023-05-09T05:08:54.338Z,97025.19
2023-05-09T05:09:56.766Z,97019.53
2023-05-09T05:11:00.188Z,97022.19
2023-05-09T05:12:04.179Z,97021.09
2023-05-09T05:13:08.279Z,97022.69
2023-05-09T05:14:10.665Z,97016.41
2023-05-09T05:15:15.300Z,97024.88
2023-05-09T05:16:17.847Z,97018.88
2023-05-09T05:17:21.902Z,97029.34
2023-05-09T05:18:24.362Z,97034.09
2023-05-09T05:19:27.856Z,97031.78
2023-05-09T05:20:30.378Z,97035.97
2023-05-09T05:21:34.445Z,97024.47
2023-05-09T05:22:37.121Z,97020.78
2023-05-09T05:23:40.571Z,97025.16
2023-05-09T05:24:44.439Z,97020.88
2023-05-09T05:25:47.857Z,97021.22
2023-05-09T05:26:50.355Z,97023.72
2023-05-09T05:27:53.724Z,97013.94
2023-05-09T05:28:57.266Z,97010.16
2023-05-09T05:30:00.877Z,97013.97
2023-05-09T05:31:03.350Z,97014.75
2023-05-09T05:32:06.770Z,97015.78
2023-05-09T05:33:09.351Z,97019.66
2023-05-09T05:34:12.844Z,97011.44
2023-05-09T05:35:16.193Z,97019.88
2023-05-09T05:36:19.942Z,97018.91
2023-05-09T05:37:22.407Z,97011.72
2023-05-09T05:38:25.784Z,97012.69
2023-05-09T05:39:28.184Z,97016.13
2023-05-09T05:40:33.441Z,97020.94
2023-05-09T05:41:35.779Z,97014.59
2023-05-09T05:42:39.578Z,97012.09
2023-05-09T05:43:42.047Z,97014.13
2023-05-09T05:44:45.437Z,97012.91
2023-05-09T05:45:48.031Z,97008.53
2023-05-09T05:46:51.370Z,97010.91
2023-05-09T05:47:56.327Z,97011.72
2023-05-09T05:48:58.800Z,97009.50
2023-05-09T05:50:02.666Z,97012.13
2023-05-09T05:51:05.127Z,97009.81
2023-05-09T05:52:08.557Z,97018.41
2023-05-09T05:53:11.994Z,97014.97
2023-05-09T05:54:14.359Z,97015.97
2023-05-09T05:55:18.020Z,97020.78
2023-05-09T05:56:22.842Z,97012.44
2023-05-09T05:57:26.195Z,97011.94
2023-05-09T05:58:28.628Z,97012.44
2023-05-09T05:59:31.959Z,97020.88
2023-05-09T06:00:35.383Z,97017.13
2023-05-09T06:01:37.788Z,97018.81
2023-05-09T06:02:44.622Z,97018.59
2023-05-09T06:03:49.920Z,97017.72
2023-05-09T06:04:53.963Z,97024.75
2023-05-09T06:05:59.244Z,97014.84
2023-05-09T06:07:02.594Z,97023.41
2023-05-09T06:08:06.249Z,97026.69
2023-05-09T06:09:08.740Z,97030.31
2023-05-09T06:10:12.372Z,97026.19
2023-05-09T06:11:14.795Z,97026.69
2023-05-09T06:12:19.523Z,97030.44
2023-05-09T06:13:22.891Z,97030.75
2023-05-09T06:14:25.458Z,97028.31
2023-05-09T06:15:28.829Z,97023.00
2023-05-09T06:16:31.450Z,97030.19
2023-05-09T06:17:35.454Z,97027.41
2023-05-09T06:18:40.272Z,97023.19
2023-05-09T06:19:43.841Z,97030.44
2023-05-09T06:20:46.200Z,97031.59
2023-05-09T06:21:49.486Z,97030.41
2023-05-09T06:22:52.546Z,97026.91
2023-05-09T06:24:05.736Z,97029.59
2023-05-09T06:25:13.644Z,97026.75
2023-05-09T06:26:16.241Z,97038.19
2023-05-09T06:27:21.121Z,97032.09
2023-05-09T06:28:23.993Z,97039.66
2023-05-09T06:29:27.391Z,97042.88
2023-05-09T06:30:29.855Z,97043.25
2023-05-09T06:31:33.256Z,97044.75
2023-05-09T06:32:35.766Z,97044.31
2023-05-09T06:33:39.462Z,97043.06
2023-05-09T06:34:42.459Z,97042.97
2023-05-09T06:35:46.076Z,97047.66
2023-05-09T06:36:49.425Z,97040.91
2023-05-09T06:37:51.832Z,97038.94
2023-05-09T06:38:55.202Z,97040.06
2023-05-09T06:39:58.583Z,97044.31
2023-05-09T06:41:00.954Z,97040.97
2023-05-09T06:42:04.476Z,97035.81
2023-05-09T06:43:08.235Z,97040.88
2023-05-09T06:44:11.637Z,97039.38
2023-05-09T06:45:14.715Z,97033.84
2023-05-09T06:46:18.490Z,97032.63
2023-05-09T06:47:20.878Z,97036.91
2023-05-09T06:48:24.911Z,97037.19
2023-05-09T06:49:27.910Z,97034.75
2023-05-09T06:50:32.910Z,97036.69
2023-05-09T06:51:36.875Z,97035.53
2023-05-09T06:52:39.381Z,97030.03
2023-05-09T06:53:42.696Z,97034.28
2023-05-09T06:54:45.229Z,97030.66
2023-05-09T06:55:49.279Z,97026.19
2023-05-09T06:56:51.713Z,97030.75
2023-05-09T06:57:55.069Z,97025.16
2023-05-09T06:58:58.802Z,97024.59
2023-05-09T07:00:03.045Z,97031.06
2023-05-09T07:01:05.884Z,97024.94
2023-05-09T07:02:09.294Z,97026.69
2023-05-09T07:03:12.022Z,97031.16
2023-05-09T07:04:15.568Z,97029.00
2023-05-09T07:05:18.755Z,97021.72
2023-05-09T07:06:22.122Z,97023.88
2023-05-09T07:07:24.947Z,97033.50
2023-05-09T07:08:28.720Z,97032.47
2023-05-09T07:09:32.036Z,97034.66
2023-05-09T07:10:35.487Z,97032.84
2023-05-09T07:11:38.016Z,97033.09
2023-05-09T07:12:41.722Z,97037.16
2023-05-09T07:13:45.247Z,97040.88
2023-05-09T07:14:48.935Z,97038.22
2023-05-09T07:15:52.924Z,97037.53
2023-05-09T07:17:05.159Z,97036.47
2023-05-09T07:18:13.747Z,97037.78
2023-05-09T07:19:16.150Z,97037.13
2023-05-09T07:20:19.688Z,97034.97
2023-05-09T07:21:22.660Z,97033.56
2023-05-09T07:22:26.068Z,97041.66
2023-05-09T07:23:28.589Z,97041.06
2023-05-09T07:24:31.962Z,97038.84
2023-05-09T07:25:34.435Z,97030.31
2023-05-09T07:26:37.911Z,97032.81
2023-05-09T07:27:41.332Z,97026.28
2023-05-09T07:28:43.748Z,97029.59
2023-05-09T07:29:49.162Z,97021.41
2023-05-09T07:30:53.174Z,97026.28
2023-05-09T07:31:57.196Z,97029.91
2023-05-09T07:32:59.676Z,97024.81
2023-05-09T07:34:03.010Z,97020.91
2023-05-09T07:35:06.394Z,97018.59
2023-05-09T07:36:13.174Z,97028.47
2023-05-09T07:37:16.501Z,97015.47
2023-05-09T07:38:20.031Z,97018.31
2023-05-09T07:39:22.438Z,97014.78
2023-05-09T07:40:25.880Z,97021.91
2023-05-09T07:41:28.335Z,97016.81
2023-05-09T07:42:32.860Z,97019.19
2023-05-09T07:43:35.494Z,97027.56
2023-05-09T07:44:38.786Z,97023.69
2023-05-09T07:45:41.455Z,97022.94
2023-05-09T07:46:46.257Z,97019.81
2023-05-09T07:47:49.688Z,97021.41
2023-05-09T07:48:53.092Z,97031.31
2023-05-09T07:49:55.496Z,97022.22
2023-05-09T07:50:58.955Z,97024.59
2023-05-09T07:52:01.366Z,97023.00
2023-05-09T07:53:05.297Z,97021.09
2023-05-09T07:54:10.145Z,97018.28
2023-05-09T07:55:13.809Z,97020.59
2023-05-09T07:56:17.473Z,97024.13
2023-05-09T07:57:19.871Z,97015.03
2023-05-09T07:58:23.453Z,97011.88
2023-05-09T07:59:25.952Z,97013.41
2023-05-09T08:00:29.338Z,97012.91
2023-05-09T08:01:31.876Z,97008.50
2023-05-09T08:02:36.718Z,97012.38
2023-05-09T08:03:39.246Z,97005.97
2023-05-09T08:04:42.842Z,97009.84
2023-05-09T08:05:46.158Z,97009.81
2023-05-09T08:06:49.026Z,97011.03
2023-05-09T08:07:52.370Z,97005.13
2023-05-09T08:08:55.753Z,97010.75
2023-05-09T08:09:59.128Z,97009.28
2023-05-09T08:11:02.508Z,97010.19
2023-05-09T08:12:06.541Z,97010.31
2023-05-09T08:13:09.132Z,97007.59
2023-05-09T08:14:13.794Z,97012.00
2023-05-09T08:15:17.734Z,97009.97
2023-05-09T08:16:21.330Z,97007.19
2023-05-09T08:17:23.804Z,97008.78
2023-05-09T08:18:28.520Z,97005.59
2023-05-09T08:19:31.879Z,97005.59
2023-05-09T08:20:36.348Z,97009.56
2023-05-09T08:21:39.828Z,97010.34
2023-05-09T08:22:42.684Z,97004.00
2023-05-09T08:23:46.691Z,97005.59
2023-05-09T08:24:49.190Z,97010.75
2023-05-09T08:25:54.493Z,97006.44
2023-05-09T08:26:56.898Z,97008.06
2023-05-09T08:28:00.398Z,97000.97
2023-05-09T08:29:03.184Z,97004.13
2023-05-09T08:30:07.946Z,97000.16
2023-05-09T08:31:10.600Z,97009.66
2023-05-09T08:32:14.411Z,97008.03
2023-05-09T08:33:16.874Z,97006.41
2023-05-09T08:34:22.691Z,97002.81
2023-05-09T08:35:26.037Z,97002.41
2023-05-09T08:36:29.407Z,97000.84
2023-05-09T08:37:31.858Z,97000.88
2023-05-09T08:38:36.455Z,97006.41
2023-05-09T08:39:39.918Z,96994.88
2023-05-09T08:40:43.381Z,96993.69
2023-05-09T08:41:47.453Z,96990.91
2023-05-09T08:42:52.105Z,96992.84
2023-05-09T08:43:55.634Z,96989.63
2023-05-09T08:44:58.894Z,96993.97
2023-05-09T08:46:08.136Z,96986.81
2023-05-09T08:47:11.539Z,96991.13
2023-05-09T08:48:17.181Z,96979.66
2023-05-09T08:49:21.725Z,96985.19
2023-05-09T08:50:26.049Z,96980.00
2023-05-09T08:51:32.323Z,96980.00
2023-05-09T08:52:36.423Z,96978.47
2023-05-09T08:53:40.580Z,96984.41
2023-05-09T08:54:43.441Z,96980.09
2023-05-09T08:55:47.168Z,96976.56
2023-05-09T08:56:50.206Z,96982.50
2023-05-09T08:57:54.222Z,96975.41
2023-05-09T08:58:57.885Z,96974.59
2023-05-09T09:00:01.410Z,96975.78
2023-05-09T09:01:09.128Z,96974.22
2023-05-09T09:02:14.610Z,96979.41
2023-05-09T09:03:18.764Z,96978.59
2023-05-09T09:04:22.951Z,96974.25
2023-05-09T09:05:40.633Z,96974.63
2023-05-09T09:06:44.785Z,96979.38
2023-05-09T09:07:47.656Z,96975.09
2023-05-09T09:08:52.237Z,96976.34
2023-05-09T09:09:57.024Z,96983.09
2023-05-09T09:10:59.562Z,96968.47
2023-05-09T09:12:04.676Z,96975.19
2023-05-09T09:13:10.104Z,96968.06
2023-05-09T09:14:16.930Z,96970.06
2023-05-09T09:15:24.264Z,96976.38
2023-05-09T09:16:31.507Z,96972.44
2023-05-09T09:17:37.742Z,96974.03
2023-05-09T09:18:41.326Z,96970.09
2023-05-09T09:19:50.015Z,96967.69
2023-05-09T09:20:58.828Z,96964.50
2023-05-09T09:22:05.743Z,96967.69
2023-05-09T09:23:11.711Z,96975.19
2023-05-09T09:24:23.977Z,96963.75
2023-05-09T09:25:27.399Z,96976.81
2023-05-09T09:26:31.947Z,96978.03
2023-05-09T09:27:35.668Z,96971.28
2023-05-09T09:28:38.095Z,96968.88
2023-05-09T09:29:41.554Z,96964.13
2023-05-09T09:30:44.880Z,96966.13
2023-05-09T09:31:49.458Z,96964.50
2023-05-09T09:32:52.720Z,96958.91
2023-05-09T09:34:01.570Z,96945.38
2023-05-09T09:35:11.078Z,96949.25
2023-05-09T09:36:13.571Z,96944.75
2023-05-09T09:37:24.299Z,96946.97
2023-05-09T09:38:28.039Z,96951.56
2023-05-09T09:39:30.390Z,96947.91
2023-05-09T09:40:33.770Z,96947.00
2023-05-09T09:41:39.028Z,96945.31
2023-05-09T09:42:43.015Z,96946.00
2023-05-09T09:43:48.284Z,96943.84
2023-05-09T09:44:57.239Z,96936.88
2023-05-09T09:46:02.741Z,96941.66
2023-05-09T09:47:10.126Z,96947.59
2023-05-09T09:48:13.639Z,96936.63
2023-05-09T09:49:18.513Z,96940.84
2023-05-09T09:50:25.582Z,96943.56
2023-05-09T09:51:30.160Z,96932.75
2023-05-09T09:52:32.580Z,96929.47
2023-05-09T09:53:40.866Z,96926.88
2023-05-09T09:54:43.522Z,96918.44
2023-05-09T09:55:52.122Z,96922.38
2023-05-09T09:56:57.032Z,96924.38
2023-05-09T09:58:00.782Z,96925.56
2023-05-09T09:59:11.749Z,96920.09
2023-05-09T10:00:18.742Z,96918.41
2023-05-09T10:01:25.341Z,96920.88
2023-05-09T10:02:29.543Z,96925.28
2023-05-09T10:03:36.856Z,96917.03
2023-05-09T10:04:42.767Z,96926.88
2023-05-09T10:05:46.934Z,96923.03
2023-05-09T10:06:58.672Z,96921.03
2023-05-09T10:08:04.263Z,96913.28
2023-05-09T10:09:07.670Z,96910.66
2023-05-09T10:10:11.439Z,96913.25
2023-05-09T10:11:15.853Z,96916.34
2023-05-09T10:12:20.847Z,96916.44
2023-05-09T10:13:24.373Z,96908.25
2023-05-09T10:14:27.958Z,96908.78
2023-05-09T10:15:41.527Z,96904.19
2023-05-09T10:16:50.176Z,96892.72
2023-05-09T10:17:58.211Z,96901.25
2023-05-09T10:19:01.737Z,96895.47
2023-05-09T10:20:06.078Z,96897.72
2023-05-09T10:21:15.942Z,96900.84
2023-05-09T10:22:20.588Z,96893.13
2023-05-09T10:23:25.427Z,96904.09
2023-05-09T10:24:31.991Z,96898.06
2023-05-09T10:25:45.775Z,96898.66
2023-05-09T10:26:53.413Z,96893.63
2023-05-09T10:28:02.612Z,96896.50
2023-05-09T10:29:11.986Z,96899.69
2023-05-09T10:30:20.274Z,96907.00
2023-05-09T10:31:27.023Z,96910.72
2023-05-09T10:32:54.018Z,96906.38
2023-05-09T10:33:57.792Z,96905.91
2023-05-09T10:35:07.027Z,96904.97
2023-05-09T10:36:13.264Z,96906.13
2023-05-09T10:37:17.108Z,96904.19
2023-05-09T10:38:21.871Z,96897.13
2023-05-09T10:39:26.286Z,96896.22
2023-05-09T10:40:30.104Z,96892.41
2023-05-09T10:41:34.167Z,96896.91
2023-05-09T10:42:37.478Z,96886.84
2023-05-09T10:43:41.498Z,96894.34
2023-05-09T10:44:45.224Z,96890.97
2023-05-09T10:45:49.252Z,96881.31
2023-05-09T10:46:52.059Z,96885.44
2023-05-09T10:47:57.110Z,96885.47
2023-05-09T10:49:00.917Z,96879.72
2023-05-09T10:50:04.939Z,96879.59
2023-05-09T10:51:10.478Z,96872.56
2023-05-09T10:52:14.792Z,96875.88
2023-05-09T10:53:18.459Z,96879.06
2023-05-09T10:54:31.088Z,96877.50
2023-05-09T10:55:37.837Z,96872.69
2023-05-09T10:56:41.281Z,96875.75
2023-05-09T10:57:55.236Z,96877.22
2023-05-09T10:58:58.052Z,96868.69
2023-05-09T11:00:02.154Z,96869.63
2023-05-09T11:01:07.268Z,96872.50
2023-05-09T11:02:14.982Z,96862.56
2023-05-09T11:03:19.484Z,96862.44
2023-05-09T11:04:22.884Z,96869.50
2023-05-09T11:05:27.095Z,96861.13
2023-05-09T11:06:45.699Z,96866.88
2023-05-09T11:08:19.962Z,96866.22
2023-05-09T11:09:28.756Z,96863.31
2023-05-09T11:10:44.146Z,96866.75
2023-05-09T11:11:53.108Z,96871.81
2023-05-09T11:12:58.338Z,96868.91
2023-05-09T11:14:01.036Z,96867.28
2023-05-09T11:15:09.157Z,96861.19
2023-05-09T11:16:13.591Z,96852.78
2023-05-09T11:17:31.832Z,96866.22
2023-05-09T11:18:34.306Z,96856.25
2023-05-09T11:19:40.066Z,96857.81
2023-05-09T11:20:49.748Z,96852.38
2023-05-09T11:22:02.428Z,96850.66
2023-05-09T11:23:12.451Z,96852.78
2023-05-09T11:24:17.345Z,96843.22
2023-05-09T11:25:28.543Z,96852.28
2023-05-09T11:26:33.960Z,96850.41
2023-05-09T11:27:40.931Z,96847.75
2023-05-09T11:28:54.964Z,96848.28
2023-05-09T11:29:59.582Z,96845.25
2023-05-09T11:31:13.264Z,96846.22
2023-05-09T11:32:17.157Z,96839.97
2023-05-09T11:33:24.068Z,96836.78
2023-05-09T11:34:28.892Z,96839.06
2023-05-09T11:35:34.352Z,96834.28
2023-05-09T11:36:38.595Z,96831.72
2023-05-09T11:37:47.296Z,96836.06
2023-05-09T11:39:02.237Z,96832.66
2023-05-09T11:40:06.775Z,96831.19
2023-05-09T11:41:09.698Z,96819.78
2023-05-09T11:42:13.351Z,96830.00
2023-05-09T11:43:22.030Z,96822.94
2023-05-09T11:44:28.177Z,96823.75
2023-05-09T11:45:34.473Z,96814.09
2023-05-09T11:46:37.642Z,96821.94
2023-05-09T11:47:41.870Z,96816.03
2023-05-09T11:48:45.500Z,96810.13
2023-05-09T11:49:48.964Z,96815.56
2023-05-09T11:50:52.407Z,96813.16
2023-05-09T11:51:54.828Z,96811.69
2023-05-09T11:52:58.593Z,96810.91
2023-05-09T11:54:04.716Z,96814.59
2023-05-09T11:55:12.045Z,96801.19
2023-05-09T11:56:16.031Z,96804.09
2023-05-09T11:57:19.602Z,96810.53
2023-05-09T11:58:22.019Z,96808.81
2023-05-09T11:59:26.013Z,96808.34
2023-05-09T12:00:29.470Z,96807.41
2023-05-09T12:01:32.223Z,96801.81
2023-05-09T12:02:36.051Z,96809.19
2023-05-09T12:03:43.401Z,96810.53
2023-05-09T12:04:47.245Z,96803.81
2023-05-09T12:05:51.051Z,96796.16
2023-05-09T12:06:53.597Z,96795.88
2023-05-09T12:07:57.982Z,96796.06
2023-05-09T12:09:01.785Z,96797.50
2023-05-09T12:10:07.508Z,96792.38
2023-05-09T12:11:10.739Z,96798.31
2023-05-09T12:12:14.944Z,96802.97
2023-05-09T12:13:20.118Z,96795.41
2023-05-09T12:14:31.133Z,96798.81
2023-05-09T12:15:38.878Z,96796.25
2023-05-09T12:16:46.501Z,96796.91
2023-05-09T12:18:03.371Z,96794.53
2023-05-09T12:19:06.319Z,96792.91
2023-05-09T12:20:10.970Z,96793.72
2023-05-09T12:21:14.731Z,96794.53
2023-05-09T12:22:18.165Z,96792.75
2023-05-09T12:23:21.712Z,96786.78
2023-05-09T12:24:28.393Z,96787.41
2023-05-09T12:25:31.801Z,96789.50
2023-05-09T12:26:34.278Z,96788.81
2023-05-09T12:27:39.136Z,96787.84
2023-05-09T12:28:43.000Z,96784.78
2023-05-09T12:29:48.910Z,96787.50
2023-05-09T12:30:52.789Z,96785.94
2023-05-09T12:31:55.986Z,96786.38
2023-05-09T12:33:00.214Z,96787.19
2023-05-09T12:34:03.957Z,96784.78
2023-05-09T12:35:11.149Z,96781.59
2023-05-09T12:36:16.106Z,96780.66
2023-05-09T12:37:20.617Z,96774.53
2023-05-09T12:38:24.589Z,96771.03
2023-05-09T12:39:29.352Z,96776.16
2023-05-09T12:40:31.995Z,96773.09